Todd, North Carolina
Current Conditions -  °F | °C
As of 4:55 AM on Thursday 23 Oct 2014 (Local Time) from KTNB Reporting Station
Clear Clear  
Wind Chill: 32°   Ceiling: Unl
Heat Index: 40°   Visibility: 10mi
Dew Point: 34°   Wind: 17mph
Humidity: 79%   Direction: 280°W
Pressure: 30.09"   Gusts: 26mph
Location:  36.31°N, 81.6°W
Report Text: KTNB 230855Z AUTO 28015G23KT 10SM CLR 05/01 A3009 RMK AO2 T00460012
Loading
Personal Weather Stations






























Interactive Weather Map
Tropical Storm Tracking
New forecast layout! Learn more

10-Day Weather Forecast

Advertisements
Track Severe Weather on mobile